createdAt,value
2018-05-14T00:00:44.155Z,44.75
2018-05-14T00:01:53.321Z,44.84
2018-05-14T00:03:02.758Z,44.75
2018-05-14T00:04:11.981Z,44.84
2018-05-14T00:05:21.441Z,44.94
2018-05-14T00:06:31.125Z,44.94
2018-05-14T00:07:40.528Z,44.94
2018-05-14T00:08:49.977Z,44.84
2018-05-14T00:09:58.976Z,44.94
2018-05-14T00:11:08.126Z,44.94
2018-05-14T00:12:17.421Z,44.84
2018-05-14T00:13:26.988Z,45.14
2018-05-14T00:14:36.487Z,44.84
2018-05-14T00:15:45.928Z,44.84
2018-05-14T00:16:55.431Z,44.84
2018-05-14T00:18:04.165Z,44.94
2018-05-14T00:19:13.850Z,44.75
2018-05-14T00:20:22.793Z,44.75
2018-05-14T00:21:31.732Z,44.75
2018-05-14T00:22:40.632Z,44.56
2018-05-14T00:23:49.544Z,44.65
2018-05-14T00:24:58.973Z,44.75
2018-05-14T00:26:07.888Z,44.75
2018-05-14T00:27:17.601Z,44.84
2018-05-14T00:28:27.292Z,44.84
2018-05-14T00:29:37.258Z,44.65
2018-05-14T00:30:46.974Z,44.75
2018-05-14T00:31:56.909Z,44.56
2018-05-14T00:33:06.688Z,44.84
2018-05-14T00:34:15.624Z,44.75
2018-05-14T00:35:24.809Z,44.65
2018-05-14T00:36:33.761Z,44.65
2018-05-14T00:37:42.938Z,44.75
2018-05-14T00:38:52.640Z,44.65
2018-05-14T00:40:01.868Z,44.65
2018-05-14T00:41:11.309Z,44.75
2018-05-14T00:42:21.007Z,44.65
2018-05-14T00:43:30.677Z,44.65
2018-05-14T00:44:39.842Z,44.75
2018-05-14T00:45:49.824Z,44.75
2018-05-14T00:46:59.263Z,44.65
2018-05-14T00:48:09.229Z,44.65
2018-05-14T00:49:18.405Z,44.65
2018-05-14T00:50:28.267Z,44.56
2018-05-14T00:51:37.442Z,45.04
2018-05-14T00:52:47.115Z,44.65
2018-05-14T00:53:56.335Z,44.56
2018-05-14T00:55:05.538Z,44.65
2018-05-14T00:56:14.723Z,44.75
2018-05-14T00:57:24.516Z,44.84
2018-05-14T00:58:33.968Z,44.75
2018-05-14T00:59:43.424Z,44.84
2018-05-14T01:00:52.953Z,44.84
2018-05-14T01:02:02.396Z,44.84
2018-05-14T01:03:11.608Z,44.84
2018-05-14T01:04:21.314Z,44.84
2018-05-14T01:05:30.755Z,44.46
2018-05-14T01:06:40.591Z,45.04
2018-05-14T01:07:50.400Z,44.84
2018-05-14T01:08:59.843Z,44.84
2018-05-14T01:10:09.077Z,44.84
2018-05-14T01:11:18.538Z,45.04
2018-05-14T01:12:27.704Z,44.84
2018-05-14T01:13:36.862Z,44.84
2018-05-14T01:14:46.338Z,44.94
2018-05-14T01:15:55.257Z,44.84
2018-05-14T01:17:04.577Z,44.84
2018-05-14T01:18:14.012Z,44.84
2018-05-14T01:19:23.424Z,45.04
2018-05-14T01:20:32.617Z,45.04
2018-05-14T01:21:42.348Z,44.94
2018-05-14T01:22:51.809Z,45.04
2018-05-14T01:24:01.254Z,45.14
2018-05-14T01:25:10.431Z,44.84
2018-05-14T01:26:20.114Z,45.01
2018-05-14T01:27:29.578Z,45.14
2018-05-14T01:28:39.013Z,45.14
2018-05-14T01:29:47.918Z,44.94
2018-05-14T01:30:57.895Z,44.84
2018-05-14T01:32:07.082Z,45.04
2018-05-14T01:33:16.232Z,44.94
2018-05-14T01:34:26.160Z,44.94
2018-05-14T01:35:35.895Z,45.04
2018-05-14T01:36:45.112Z,45.04
2018-05-14T01:37:54.304Z,45.14
2018-05-14T01:39:03.486Z,45.04
2018-05-14T01:40:13.161Z,44.82
2018-05-14T01:41:22.648Z,45.04
2018-05-14T01:42:32.080Z,44.84
2018-05-14T01:43:41.768Z,44.94
2018-05-14T01:44:51.218Z,44.94
2018-05-14T01:46:00.646Z,45.04
2018-05-14T01:47:10.350Z,45.01
2018-05-14T01:48:20.013Z,45.23
2018-05-14T01:49:30.034Z,45.04
2018-05-14T01:50:39.723Z,45.04
2018-05-14T01:51:49.416Z,45.23
2018-05-14T01:52:59.418Z,45.04
2018-05-14T01:54:08.858Z,44.84
2018-05-14T01:55:18.041Z,45.01
2018-05-14T01:56:27.232Z,44.84
2018-05-14T01:57:36.402Z,45.04
2018-05-14T01:58:45.587Z,45.04
2018-05-14T01:59:55.018Z,44.84
2018-05-14T02:01:04.455Z,44.94
2018-05-14T02:02:13.653Z,44.84
2018-05-14T02:03:23.078Z,45.04
2018-05-14T02:04:32.769Z,44.94
2018-05-14T02:05:42.452Z,44.94
2018-05-14T02:06:51.908Z,45.04
2018-05-14T02:08:01.421Z,44.73
2018-05-14T02:09:11.118Z,45.21
2018-05-14T02:10:20.557Z,45.21
2018-05-14T02:11:30.254Z,45.31
2018-05-14T02:12:39.679Z,45.31
2018-05-14T02:13:49.188Z,45.01
2018-05-14T02:14:58.899Z,45.01
2018-05-14T02:16:08.344Z,45.4
2018-05-14T02:17:17.782Z,45.31
2018-05-14T02:18:27.206Z,45.31
2018-05-14T02:19:36.662Z,45.11
2018-05-14T02:20:46.096Z,45.5
2018-05-14T02:21:55.277Z,45.4
2018-05-14T02:23:04.480Z,45.21
2018-05-14T02:24:14.168Z,45.4
2018-05-14T02:25:23.647Z,45.21
2018-05-14T02:26:33.088Z,45.21
2018-05-14T02:27:42.515Z,45.31
2018-05-14T02:28:51.950Z,45.21
2018-05-14T02:30:01.623Z,45.4
2018-05-14T02:31:10.557Z,45.5
2018-05-14T02:32:19.790Z,45.31
2018-05-14T02:33:28.955Z,45.31
2018-05-14T02:34:37.909Z,45.62
2018-05-14T02:35:47.596Z,45.79
2018-05-14T02:36:57.305Z,45.69
2018-05-14T02:38:06.768Z,45.89
2018-05-14T02:39:16.187Z,45.21
2018-05-14T02:40:25.880Z,45.69
2018-05-14T02:41:35.561Z,45.21
2018-05-14T02:42:45.240Z,45.21
2018-05-14T02:43:54.680Z,45.79
2018-05-14T02:45:04.125Z,45.79
2018-05-14T02:46:13.297Z,45.79
2018-05-14T02:47:23.005Z,45.79
2018-05-14T02:48:32.968Z,45.69
2018-05-14T02:49:42.783Z,45.69
2018-05-14T02:50:51.950Z,45.69
2018-05-14T02:52:01.672Z,45.31
2018-05-14T02:53:11.199Z,45.31
2018-05-14T02:54:21.180Z,45.31
2018-05-14T02:55:30.363Z,45.21
2018-05-14T02:56:39.550Z,45.31
2018-05-14T02:57:49.518Z,45.5
2018-05-14T02:58:59.007Z,45.4
2018-05-14T03:00:08.448Z,45.31
2018-05-14T03:01:17.913Z,45.5
2018-05-14T03:02:28.003Z,45.31
2018-05-14T03:03:37.312Z,45.4
2018-05-14T03:04:47.430Z,45.31
2018-05-14T03:05:56.736Z,45.5
2018-05-14T03:07:06.723Z,45.21
2018-05-14T03:08:16.464Z,45.21
2018-05-14T03:09:26.458Z,45.4
2018-05-14T03:10:36.092Z,45.31
2018-05-14T03:11:45.088Z,45.01
2018-05-14T03:12:54.798Z,45.31
2018-05-14T03:14:03.982Z,45.11
2018-05-14T03:15:13.156Z,45.4
2018-05-14T03:16:23.126Z,45.4
2018-05-14T03:17:31.776Z,45.5
2018-05-14T03:18:41.305Z,45.5
2018-05-14T03:19:50.762Z,45.4
2018-05-14T03:21:00.466Z,45.21
2018-05-14T03:22:09.392Z,45.59
2018-05-14T03:23:18.569Z,45.59
2018-05-14T03:24:28.243Z,46.08
2018-05-14T03:25:37.706Z,45.5
2018-05-14T03:26:46.873Z,45.5
2018-05-14T03:27:56.335Z,46.08
2018-05-14T03:29:05.481Z,45.59
2018-05-14T03:30:15.153Z,45.69
2018-05-14T03:31:24.851Z,45.98
2018-05-14T03:32:34.521Z,45.98
2018-05-14T03:33:44.009Z,45.79
2018-05-14T03:34:53.700Z,45.79
2018-05-14T03:36:02.612Z,45.69
2018-05-14T03:37:12.315Z,45.98
2018-05-14T03:38:21.548Z,45.79
2018-05-14T03:39:31.252Z,45.89
2018-05-14T03:40:40.166Z,45.89
2018-05-14T03:41:49.722Z,45.89
2018-05-14T03:42:59.427Z,45.79
2018-05-14T03:44:08.832Z,45.89
2018-05-14T03:45:18.283Z,45.89
2018-05-14T03:46:27.770Z,45.69
2018-05-14T03:47:37.190Z,45.69
2018-05-14T03:48:46.604Z,45.69
2018-05-14T03:49:55.768Z,45.79
2018-05-14T03:51:05.198Z,45.5
2018-05-14T03:52:14.365Z,45.59
2018-05-14T03:53:23.871Z,45.69
2018-05-14T03:54:33.328Z,45.69
2018-05-14T03:55:43.284Z,45.79
2018-05-14T03:56:52.791Z,45.59
2018-05-14T03:58:02.403Z,45.69
2018-05-14T03:59:11.331Z,45.5
2018-05-14T04:00:21.255Z,45.59
2018-05-14T04:01:30.714Z,45.69
2018-05-14T04:02:40.150Z,45.69
2018-05-14T04:03:49.316Z,45.5
2018-05-14T04:04:59.424Z,45.69
2018-05-14T04:06:08.349Z,45.69
2018-05-14T04:07:17.821Z,45.59
2018-05-14T04:08:27.693Z,45.59
2018-05-14T04:09:37.298Z,45.5
2018-05-14T04:10:46.713Z,45.69
2018-05-14T04:11:56.157Z,45.59
2018-05-14T04:13:05.913Z,45.69
2018-05-14T04:14:14.819Z,45.69
2018-05-14T04:15:24.512Z,45.69
2018-05-14T04:16:33.972Z,45.79
2018-05-14T04:17:44.070Z,45.89
2018-05-14T04:18:53.349Z,45.79
2018-05-14T04:20:02.762Z,45.59
2018-05-14T04:21:12.440Z,46.17
2018-05-14T04:22:22.389Z,45.4
2018-05-14T04:23:31.581Z,45.79
2018-05-14T04:24:41.547Z,45.89
2018-05-14T04:25:50.972Z,45.98
2018-05-14T04:27:00.163Z,45.89
2018-05-14T04:28:09.673Z,46.08
2018-05-14T04:29:19.083Z,45.89
2018-05-14T04:30:28.276Z,45.59
2018-05-14T04:31:37.960Z,45.79
2018-05-14T04:32:47.158Z,45.89
2018-05-14T04:33:56.100Z,45.59
2018-05-14T04:35:05.349Z,45.89
2018-05-14T04:36:15.495Z,45.79
2018-05-14T04:37:24.965Z,45.5
2018-05-14T04:38:34.405Z,45.89
2018-05-14T04:39:43.617Z,45.59
2018-05-14T04:40:53.292Z,45.5
2018-05-14T04:42:02.974Z,45.5
2018-05-14T04:43:12.407Z,45.4
2018-05-14T04:44:22.355Z,45.4
2018-05-14T04:45:31.785Z,45.69
2018-05-14T04:46:41.395Z,45.69
2018-05-14T04:47:51.107Z,45.69
2018-05-14T04:49:00.814Z,45.79
2018-05-14T04:50:10.511Z,45.79
2018-05-14T04:51:20.256Z,45.79
2018-05-14T04:52:29.997Z,45.4
2018-05-14T04:53:39.673Z,45.4
2018-05-14T04:54:49.205Z,45.5
2018-05-14T04:55:58.674Z,45.5
2018-05-14T04:57:07.633Z,45.69
2018-05-14T04:58:17.082Z,45.69
2018-05-14T04:59:26.507Z,45.69
2018-05-14T05:00:36.651Z,45.5
2018-05-14T05:01:46.612Z,45.5
2018-05-14T05:02:55.795Z,45.79
2018-05-14T05:04:05.778Z,45.69
2018-05-14T05:05:14.947Z,45.4
2018-05-14T05:06:24.635Z,45.5
2018-05-14T05:07:33.815Z,45.5
2018-05-14T05:08:43.244Z,45.59
2018-05-14T05:09:52.943Z,45.89
2018-05-14T05:11:02.410Z,45.59
2018-05-14T05:12:11.830Z,45.89
2018-05-14T05:13:21.257Z,45.79
2018-05-14T05:14:30.939Z,45.98
2018-05-14T05:15:40.132Z,45.89
2018-05-14T05:16:49.840Z,45.79
2018-05-14T05:17:58.737Z,45.89
2018-05-14T05:19:08.439Z,45.79
2018-05-14T05:20:17.877Z,45.69
2018-05-14T05:21:26.844Z,45.59
2018-05-14T05:22:36.034Z,45.59
2018-05-14T05:23:46.385Z,45.59
2018-05-14T05:24:56.087Z,45.62
2018-05-14T05:26:05.512Z,45.5
2018-05-14T05:27:15.225Z,45.31
2018-05-14T05:28:24.786Z,45.23
2018-05-14T05:29:34.870Z,45.52
2018-05-14T05:30:44.291Z,45.98
2018-05-14T05:31:53.731Z,45.42
2018-05-14T05:33:03.775Z,45.59
2018-05-14T05:34:12.998Z,45.52
2018-05-14T05:35:22.206Z,45.62
2018-05-14T05:36:31.383Z,45.33
2018-05-14T05:37:41.221Z,45.5
2018-05-14T05:38:50.861Z,45.42
2018-05-14T05:40:00.593Z,45.33
2018-05-14T05:41:09.753Z,45.5
2018-05-14T05:42:19.209Z,46.1
2018-05-14T05:43:28.650Z,45.52
2018-05-14T05:44:38.369Z,45.81
2018-05-14T05:45:47.545Z,45.62
2018-05-14T05:46:56.709Z,45.62
2018-05-14T05:48:05.967Z,45.59
2018-05-14T05:49:15.151Z,46
2018-05-14T05:50:24.353Z,45.91
2018-05-14T05:51:33.283Z,46.1
2018-05-14T05:52:42.707Z,45.91
2018-05-14T05:53:51.871Z,45.89
2018-05-14T05:55:00.767Z,45.91
2018-05-14T05:56:09.941Z,45.81
2018-05-14T05:57:19.657Z,45.91
2018-05-14T05:58:29.616Z,46
2018-05-14T05:59:39.104Z,45.81
2018-05-14T06:00:48.060Z,46
2018-05-14T06:01:57.236Z,45.69
2018-05-14T06:03:06.689Z,45.72
2018-05-14T06:04:16.118Z,45.91
2018-05-14T06:05:25.802Z,45.5
2018-05-14T06:06:35.335Z,45.72
2018-05-14T06:07:44.239Z,45.91
2018-05-14T06:08:53.951Z,45.81
2018-05-14T06:10:02.892Z,45.91
2018-05-14T06:11:12.400Z,45.91
2018-05-14T06:12:22.467Z,45.91
2018-05-14T06:13:31.895Z,45.91
2018-05-14T06:14:41.343Z,45.91
2018-05-14T06:15:50.799Z,45.91
2018-05-14T06:16:59.994Z,45.81
2018-05-14T06:18:09.192Z,45.91
2018-05-14T06:19:18.386Z,45.91
2018-05-14T06:20:27.304Z,46.1
2018-05-14T06:21:36.489Z,45.91
2018-05-14T06:22:45.938Z,45.91
2018-05-14T06:23:55.101Z,46
2018-05-14T06:25:04.554Z,45.52
2018-05-14T06:26:14.245Z,46
2018-05-14T06:27:24.202Z,45.72
2018-05-14T06:28:33.632Z,46.1
2018-05-14T06:29:43.104Z,46
2018-05-14T06:30:52.287Z,45.62
2018-05-14T06:32:01.991Z,45.33
2018-05-14T06:33:10.651Z,45.62
2018-05-14T06:34:19.626Z,45.23
2018-05-14T06:35:29.279Z,45.62
2018-05-14T06:36:39.134Z,45.62
2018-05-14T06:37:49.105Z,45.52
2018-05-14T06:38:58.329Z,45.42
2018-05-14T06:40:08.035Z,45.42
2018-05-14T06:41:17.216Z,45.42
2018-05-14T06:42:26.396Z,45.23
2018-05-14T06:43:36.091Z,45.33
2018-05-14T06:44:45.037Z,45.33
2018-05-14T06:45:54.461Z,45.23
2018-05-14T06:47:04.148Z,45.52
2018-05-14T06:48:13.651Z,45.14
2018-05-14T06:49:22.563Z,45.23
2018-05-14T06:50:31.762Z,45.23
2018-05-14T06:51:40.828Z,45.33
2018-05-14T06:52:49.749Z,45.33
2018-05-14T06:53:59.167Z,45.14
2018-05-14T06:55:08.453Z,45.14
2018-05-14T06:56:18.037Z,45.42
2018-05-14T06:57:27.767Z,45.14
2018-05-14T06:58:37.191Z,45.04
2018-05-14T06:59:47.158Z,45.33
2018-05-14T07:00:56.337Z,45.42
2018-05-14T07:02:05.868Z,45.23
2018-05-14T07:03:15.376Z,45.23
2018-05-14T07:04:24.818Z,45.14
2018-05-14T07:05:33.991Z,45.23
2018-05-14T07:06:42.912Z,45.23
2018-05-14T07:07:51.845Z,45.14
2018-05-14T07:09:01.541Z,45.33
2018-05-14T07:10:11.034Z,45.52
2018-05-14T07:11:19.970Z,45.14
2018-05-14T07:12:29.787Z,45.14
2018-05-14T07:13:38.960Z,45.04
2018-05-14T07:14:48.129Z,45.62
2018-05-14T07:15:57.824Z,45.23
2018-05-14T07:17:07.757Z,45.52
2018-05-14T07:18:18.126Z,45.52
2018-05-14T07:19:27.833Z,45.33
2018-05-14T07:20:37.028Z,45.52
2018-05-14T07:21:46.795Z,45.42
2018-05-14T07:22:55.968Z,45.33
2018-05-14T07:24:05.130Z,45.52
2018-05-14T07:25:14.031Z,45.72
2018-05-14T07:26:23.745Z,45.42
2018-05-14T07:27:33.438Z,45.42
2018-05-14T07:28:43.148Z,45.42
2018-05-14T07:29:52.356Z,45.42
2018-05-14T07:31:02.024Z,45.72
2018-05-14T07:32:11.195Z,45.52
2018-05-14T07:33:20.372Z,45.72
2018-05-14T07:34:29.482Z,45.23
2018-05-14T07:35:38.895Z,45.42
2018-05-14T07:36:47.804Z,45.33
2018-05-14T07:37:57.491Z,45.23
2018-05-14T07:39:06.401Z,45.81
2018-05-14T07:40:16.076Z,45.72
2018-05-14T07:41:26.082Z,45.14
2018-05-14T07:42:35.239Z,45.81
2018-05-14T07:43:45.367Z,45.72
2018-05-14T07:44:54.790Z,45.72
2018-05-14T07:46:04.024Z,45.81
2018-05-14T07:47:13.967Z,45.23
2018-05-14T07:48:23.415Z,45.52
2018-05-14T07:49:32.576Z,45.62
2018-05-14T07:50:42.008Z,45.33
2018-05-14T07:51:50.925Z,45.62
2018-05-14T07:53:00.356Z,45.33
2018-05-14T07:54:10.034Z,45.33
2018-05-14T07:55:19.210Z,45.33
2018-05-14T07:56:28.896Z,45.33
2018-05-14T07:57:38.591Z,45.54
2018-05-14T07:58:48.037Z,45.52
2018-05-14T07:59:57.206Z,45.45
2018-05-14T08:01:06.888Z,45.14
2018-05-14T08:02:16.349Z,45.06
2018-05-14T08:03:26.051Z,45.25
2018-05-14T08:04:34.719Z,45.16
2018-05-14T08:05:44.406Z,45.14
2018-05-14T08:06:54.440Z,45.06
2018-05-14T08:08:05.044Z,45.33
2018-05-14T08:09:14.211Z,45.33
2018-05-14T08:10:23.669Z,45.16
2018-05-14T08:11:32.447Z,45.35
2018-05-14T08:12:42.805Z,45.23
2018-05-14T08:13:52.494Z,45.35
2018-05-14T08:15:01.681Z,45.25
2018-05-14T08:16:11.103Z,45.16
2018-05-14T08:17:21.055Z,45.16
2018-05-14T08:18:30.476Z,45.35
2018-05-14T08:19:40.249Z,45.06
2018-05-14T08:20:50.231Z,45.25
2018-05-14T08:21:59.916Z,45.25
2018-05-14T08:23:09.375Z,44.96
2018-05-14T08:24:18.800Z,44.96
2018-05-14T08:25:28.233Z,45.16
2018-05-14T08:26:37.734Z,45.06
2018-05-14T08:27:47.466Z,44.87
2018-05-14T08:28:57.206Z,44.77
2018-05-14T08:30:06.378Z,45.06
2018-05-14T08:31:16.316Z,44.87
2018-05-14T08:32:25.653Z,44.96
2018-05-14T08:33:34.584Z,44.96
2018-05-14T08:34:44.547Z,44.96
2018-05-14T08:35:53.730Z,45.06
2018-05-14T08:37:03.828Z,44.87
2018-05-14T08:38:13.485Z,44.96
2018-05-14T08:39:22.669Z,45.06
2018-05-14T08:40:32.616Z,45.06
2018-05-14T08:41:42.314Z,45.06
2018-05-14T08:42:52.669Z,44.87
2018-05-14T08:44:02.350Z,45.06
2018-05-14T08:45:12.184Z,45.06
2018-05-14T08:46:21.872Z,44.77
2018-05-14T08:47:30.791Z,45.06
2018-05-14T08:48:40.352Z,45.06
2018-05-14T08:49:49.264Z,45.06
2018-05-14T08:50:58.461Z,45.06
2018-05-14T08:52:07.883Z,45.06
2018-05-14T08:53:17.569Z,45.04
2018-05-14T08:54:26.832Z,45.04
2018-05-14T08:55:37.062Z,45.25
2018-05-14T08:56:46.286Z,44.87
2018-05-14T08:57:55.465Z,45.06
2018-05-14T08:59:04.887Z,45.25
2018-05-14T09:00:14.077Z,45.16
2018-05-14T09:01:22.998Z,44.96
2018-05-14T09:02:32.429Z,44.96
2018-05-14T09:03:41.593Z,45.06
2018-05-14T09:04:51.024Z,45.16
2018-05-14T09:06:00.174Z,45.16
2018-05-14T09:07:09.120Z,45.06
2018-05-14T09:08:18.570Z,45.16
2018-05-14T09:09:27.759Z,45.06
2018-05-14T09:10:37.706Z,44.96
2018-05-14T09:11:47.168Z,44.96
2018-05-14T09:12:56.363Z,44.87
2018-05-14T09:14:05.578Z,45.16
2018-05-14T09:15:15.005Z,45.16
2018-05-14T09:16:24.432Z,45.16
2018-05-14T09:17:34.377Z,45.16
2018-05-14T09:18:44.320Z,44.96
2018-05-14T09:19:53.742Z,44.96
2018-05-14T09:21:03.168Z,45.06
2018-05-14T09:22:12.709Z,45.16
2018-05-14T09:23:22.156Z,45.06
2018-05-14T09:24:31.837Z,44.96
2018-05-14T09:25:41.280Z,44.87
2018-05-14T09:26:50.977Z,44.96
2018-05-14T09:28:00.417Z,44.87
2018-05-14T09:29:10.121Z,44.87
2018-05-14T09:30:19.818Z,44.87
2018-05-14T09:31:29.504Z,44.87
2018-05-14T09:32:39.188Z,44.77
2018-05-14T09:33:48.410Z,44.87
2018-05-14T09:34:58.376Z,45.16
2018-05-14T09:36:07.546Z,45.16
2018-05-14T09:37:16.969Z,44.67
2018-05-14T09:38:26.763Z,44.48
2018-05-14T09:39:36.215Z,44.67
2018-05-14T09:40:45.948Z,45.06
2018-05-14T09:41:55.396Z,44.38
2018-05-14T09:43:05.341Z,44.48
2018-05-14T09:44:15.050Z,44.38
2018-05-14T09:45:24.731Z,44.67
2018-05-14T09:46:34.159Z,44.57
2018-05-14T09:47:43.334Z,44.67
2018-05-14T09:48:53.024Z,44.67
2018-05-14T09:50:02.728Z,44.67
2018-05-14T09:51:12.239Z,44.77
2018-05-14T09:52:21.155Z,44.87
2018-05-14T09:53:30.757Z,44.77
2018-05-14T09:54:40.726Z,44.87
2018-05-14T09:55:49.900Z,44.77
2018-05-14T09:56:59.585Z,44.67
2018-05-14T09:58:08.786Z,44.67
2018-05-14T09:59:18.479Z,44.67
2018-05-14T10:00:27.679Z,44.77
2018-05-14T10:01:36.592Z,44.77
2018-05-14T10:02:45.770Z,44.87
2018-05-14T10:03:54.689Z,44.87
2018-05-14T10:05:04.685Z,44.77
2018-05-14T10:06:14.408Z,44.87
2018-05-14T10:07:23.858Z,44.67
2018-05-14T10:08:33.285Z,44.77
2018-05-14T10:09:42.197Z,44.77
2018-05-14T10:10:51.649Z,44.77
2018-05-14T10:12:00.570Z,45.06
2018-05-14T10:13:09.996Z,44.87
2018-05-14T10:14:19.157Z,44.87
2018-05-14T10:15:28.621Z,44.87
2018-05-14T10:16:38.307Z,44.87
2018-05-14T10:17:47.528Z,45.06
2018-05-14T10:18:56.971Z,44.96
2018-05-14T10:20:06.395Z,44.96
2018-05-14T10:21:15.043Z,44.96
2018-05-14T10:22:24.214Z,44.87
2018-05-14T10:23:33.655Z,44.96
2018-05-14T10:24:43.733Z,44.87
2018-05-14T10:25:53.708Z,44.77
2018-05-14T10:27:03.172Z,44.67
2018-05-14T10:28:12.337Z,44.87
2018-05-14T10:29:21.276Z,44.87
2018-05-14T10:30:30.876Z,45.06
2018-05-14T10:31:40.347Z,45.06
2018-05-14T10:32:49.520Z,44.57
2018-05-14T10:33:58.688Z,44.77
2018-05-14T10:35:08.171Z,44.38
2018-05-14T10:36:17.848Z,44.38
2018-05-14T10:37:27.266Z,44.57
2018-05-14T10:38:37.223Z,44.29
2018-05-14T10:39:45.879Z,44.57
2018-05-14T10:40:55.129Z,44.29
2018-05-14T10:42:04.308Z,44.29
2018-05-14T10:43:13.750Z,44.29
2018-05-14T10:44:23.260Z,44.57
2018-05-14T10:45:32.639Z,44.48
2018-05-14T10:46:41.849Z,44.29
2018-05-14T10:47:51.420Z,44.29
2018-05-14T10:49:00.592Z,44.38
2018-05-14T10:50:09.498Z,44.48
2018-05-14T10:51:18.920Z,44.38
2018-05-14T10:52:28.383Z,44.38
2018-05-14T10:53:37.282Z,44.29
2018-05-14T10:54:46.448Z,44.29
2018-05-14T10:55:56.174Z,44.38
2018-05-14T10:57:05.346Z,44.38
2018-05-14T10:58:15.035Z,44.29
2018-05-14T10:59:25.002Z,44.19
2018-05-14T11:00:34.429Z,44.38
2018-05-14T11:01:43.599Z,44.29
2018-05-14T11:02:53.027Z,44.19
2018-05-14T11:04:02.821Z,44.29
2018-05-14T11:05:12.239Z,44.19
2018-05-14T11:06:21.185Z,44.19
2018-05-14T11:07:30.352Z,44.38
2018-05-14T11:08:39.526Z,44.29
2018-05-14T11:09:49.231Z,44.29
2018-05-14T11:10:59.185Z,44.57
2018-05-14T11:12:08.629Z,44.19
2018-05-14T11:13:18.064Z,44.29
2018-05-14T11:14:27.488Z,44.29
2018-05-14T11:15:36.909Z,44.19
2018-05-14T11:16:46.347Z,44.38
2018-05-14T11:17:55.794Z,44.19
2018-05-14T11:19:04.732Z,44.09
2018-05-14T11:20:14.415Z,44.29
2018-05-14T11:21:24.543Z,44.29
2018-05-14T11:22:33.962Z,44.19
2018-05-14T11:23:42.878Z,44.38
2018-05-14T11:24:52.823Z,44.09
2018-05-14T11:26:02.505Z,44.29
2018-05-14T11:27:12.212Z,44.57
2018-05-14T11:28:21.662Z,44.29
2018-05-14T11:29:31.100Z,44.09
2018-05-14T11:30:40.854Z,44.19
2018-05-14T11:31:49.769Z,44.38
2018-05-14T11:32:58.942Z,44.19
2018-05-14T11:34:07.857Z,44.09
2018-05-14T11:35:17.317Z,44.09
2018-05-14T11:36:27.325Z,44.09
2018-05-14T11:37:37.015Z,44.09
2018-05-14T11:38:46.469Z,44.38
2018-05-14T11:39:56.164Z,44.19
2018-05-14T11:41:06.117Z,44.48
2018-05-14T11:42:15.800Z,44.09
2018-05-14T11:43:25.255Z,44.19
2018-05-14T11:44:34.659Z,44.29
2018-05-14T11:45:44.073Z,44.48
2018-05-14T11:46:53.765Z,43.99
2018-05-14T11:48:03.196Z,44.19
2018-05-14T11:49:12.678Z,44.09
2018-05-14T11:50:22.143Z,44.29
2018-05-14T11:51:31.590Z,44.38
2018-05-14T11:52:41.003Z,44.29
2018-05-14T11:53:49.644Z,43.8
2018-05-14T11:54:59.099Z,43.9
2018-05-14T11:56:08.544Z,44.09
2018-05-14T11:57:18.353Z,44.09
2018-05-14T11:58:28.050Z,44.29
2018-05-14T11:59:37.726Z,44.48
2018-05-14T12:00:47.401Z,44.38
2018-05-14T12:01:56.579Z,44.29
2018-05-14T12:03:05.823Z,44.19
2018-05-14T12:04:15.494Z,44.09
2018-05-14T12:05:25.267Z,44.09
2018-05-14T12:06:35.000Z,44.19
2018-05-14T12:07:44.168Z,44.19
2018-05-14T12:08:53.431Z,44.19
2018-05-14T12:10:02.646Z,44.19
2018-05-14T12:11:12.553Z,44.19
2018-05-14T12:12:21.989Z,44.19
2018-05-14T12:13:31.410Z,44.29
2018-05-14T12:14:41.407Z,44.29
2018-05-14T12:15:50.598Z,44.29
2018-05-14T12:17:00.796Z,44.29
2018-05-14T12:18:10.787Z,44.29
2018-05-14T12:19:20.920Z,44.29
2018-05-14T12:20:30.619Z,44.29
2018-05-14T12:21:40.069Z,44.19
2018-05-14T12:22:49.759Z,44.19
2018-05-14T12:23:58.693Z,44.31
2018-05-14T12:25:07.882Z,44.29
2018-05-14T12:26:17.053Z,44.29
2018-05-14T12:27:26.757Z,44.29
2018-05-14T12:28:36.197Z,44.21
2018-05-14T12:29:45.366Z,44.19
2018-05-14T12:30:54.535Z,43.99
2018-05-14T12:32:03.932Z,44.48
2018-05-14T12:33:13.982Z,44.48
2018-05-14T12:34:23.412Z,44.12
2018-05-14T12:35:32.919Z,44.21
2018-05-14T12:36:42.610Z,44.19
2018-05-14T12:37:52.038Z,44.02
2018-05-14T12:39:01.549Z,44.02
2018-05-14T12:40:11.257Z,43.82
2018-05-14T12:41:20.667Z,43.9
2018-05-14T12:42:29.319Z,43.9
2018-05-14T12:43:38.729Z,43.82
2018-05-14T12:44:48.413Z,43.8
2018-05-14T12:45:57.558Z,43.9
2018-05-14T12:47:07.362Z,43.92
2018-05-14T12:48:16.790Z,44.12
2018-05-14T12:49:25.944Z,43.92
2018-05-14T12:50:34.604Z,43.9
2018-05-14T12:51:44.044Z,44.12
2018-05-14T12:52:53.870Z,43.92
2018-05-14T12:54:03.297Z,43.99
2018-05-14T12:55:12.975Z,44.09
2018-05-14T12:56:22.664Z,43.99
2018-05-14T12:57:31.586Z,44.02
2018-05-14T12:58:40.997Z,43.92
2018-05-14T12:59:49.910Z,43.92
2018-05-14T13:00:59.353Z,44.12
2018-05-14T13:02:08.531Z,44.19
2018-05-14T13:03:17.973Z,44.09
2018-05-14T13:04:27.192Z,44.21
2018-05-14T13:05:36.113Z,44.19
2018-05-14T13:06:45.281Z,44.29
2018-05-14T13:07:54.796Z,44.19
2018-05-14T13:09:03.941Z,44.21
2018-05-14T13:10:13.383Z,44.31
2018-05-14T13:11:22.285Z,44.19
2018-05-14T13:12:31.472Z,44.19
2018-05-14T13:13:40.631Z,44.21
2018-05-14T13:14:50.311Z,44.02
2018-05-14T13:15:59.484Z,44.21
2018-05-14T13:17:08.633Z,43.99
2018-05-14T13:18:17.799Z,44.31
2018-05-14T13:19:27.486Z,44.12
2018-05-14T13:20:37.011Z,44.31
2018-05-14T13:21:45.932Z,44.31
2018-05-14T13:22:55.645Z,44.19
2018-05-14T13:24:05.068Z,44.19
2018-05-14T13:25:14.957Z,44.21
2018-05-14T13:26:24.520Z,44.21
2018-05-14T13:27:33.937Z,44.12
2018-05-14T13:28:43.622Z,44.12
2018-05-14T13:29:53.306Z,44.19
2018-05-14T13:31:02.992Z,44.19
2018-05-14T13:32:12.604Z,44.09
2018-05-14T13:33:22.387Z,44.21
2018-05-14T13:34:31.812Z,44.21
2018-05-14T13:35:41.294Z,44.09
2018-05-14T13:36:51.017Z,44.09
2018-05-14T13:38:01.249Z,44.29
2018-05-14T13:39:11.105Z,44.21
2018-05-14T13:40:20.544Z,44.29
2018-05-14T13:41:29.968Z,44.09
2018-05-14T13:42:39.648Z,43.99
2018-05-14T13:43:48.867Z,44.02
2018-05-14T13:44:58.300Z,43.92
2018-05-14T13:46:07.728Z,43.9
2018-05-14T13:47:17.409Z,43.44
2018-05-14T13:48:26.817Z,43.73
2018-05-14T13:49:35.978Z,43.73
2018-05-14T13:50:45.129Z,43.61
2018-05-14T13:51:54.622Z,43.63
2018-05-14T13:53:04.049Z,43.63
2018-05-14T13:54:13.758Z,43.63
2018-05-14T13:55:23.455Z,43.82
2018-05-14T13:56:33.138Z,43.63
2018-05-14T13:57:42.293Z,43.63
2018-05-14T13:58:51.742Z,43.82
2018-05-14T14:00:01.167Z,43.73
2018-05-14T14:01:10.574Z,43.73
2018-05-14T14:02:19.485Z,43.92
2018-05-14T14:03:28.927Z,43.82
2018-05-14T14:04:38.080Z,43.92
2018-05-14T14:05:47.743Z,43.92
2018-05-14T14:06:56.905Z,43.82
2018-05-14T14:08:06.357Z,43.73
2018-05-14T14:09:15.517Z,43.82
2018-05-14T14:10:24.942Z,43.92
2018-05-14T14:11:34.784Z,43.92
2018-05-14T14:12:44.200Z,43.73
2018-05-14T14:13:53.634Z,43.54
2018-05-14T14:15:03.318Z,43.63
2018-05-14T14:16:12.490Z,43.44
2018-05-14T14:17:22.175Z,43.63
2018-05-14T14:18:31.088Z,43.54
2018-05-14T14:19:40.236Z,43.44
2018-05-14T14:20:49.933Z,43.05
2018-05-14T14:21:59.620Z,43.63
2018-05-14T14:23:09.509Z,43.63
2018-05-14T14:24:19.642Z,43.63
2018-05-14T14:25:29.324Z,43.54
2018-05-14T14:26:38.846Z,43.63
2018-05-14T14:27:48.556Z,43.63
2018-05-14T14:28:58.238Z,43.63
2018-05-14T14:30:07.684Z,43.63
2018-05-14T14:31:17.172Z,43.54
2018-05-14T14:32:26.319Z,43.63
2018-05-14T14:33:35.486Z,43.63
2018-05-14T14:34:44.411Z,43.54
2018-05-14T14:35:53.605Z,44.02
2018-05-14T14:37:03.998Z,43.73
2018-05-14T14:38:13.149Z,43.73
2018-05-14T14:39:22.824Z,44.02
2018-05-14T14:40:32.255Z,44.02
2018-05-14T14:41:41.163Z,43.73
2018-05-14T14:42:50.653Z,44.02
2018-05-14T14:44:00.106Z,43.54
2018-05-14T14:45:09.569Z,43.73
2018-05-14T14:46:19.182Z,43.92
2018-05-14T14:47:29.083Z,44.02
2018-05-14T14:48:37.982Z,43.63
2018-05-14T14:49:47.669Z,43.92
2018-05-14T14:50:57.113Z,43.73
2018-05-14T14:52:06.801Z,43.92
2018-05-14T14:53:16.762Z,43.73
2018-05-14T14:54:26.211Z,43.54
2018-05-14T14:55:35.381Z,43.73
2018-05-14T14:56:44.558Z,43.92
2018-05-14T14:57:53.995Z,44.02